createdAt,value
2019-04-21T00:01:03.447Z,77.76
2019-04-21T00:01:59.577Z,78.50
2019-04-21T00:03:01.874Z,78.41
2019-04-21T00:04:09.577Z,79.37
2019-04-21T00:05:22.888Z,79.17
2019-04-21T00:06:18.634Z,79.47
2019-04-21T00:07:32.688Z,80.14
2019-04-21T00:08:27.109Z,80.14
2019-04-21T00:09:26.142Z,79.17
2019-04-21T00:10:23.488Z,79.08
2019-04-21T00:12:20.239Z,78.79
2019-04-21T00:13:12.012Z,78.50
2019-04-21T00:14:11.334Z,78.50
2019-04-21T00:15:09.722Z,78.31
2019-04-21T00:16:04.751Z,78.79
2019-04-21T00:17:05.352Z,78.21
2019-04-21T00:18:01.019Z,78.31
2019-04-21T00:19:03.332Z,78.31
2019-04-21T00:20:09.158Z,78.21
2019-04-21T00:21:09.603Z,78.69
2019-04-21T00:22:08.555Z,78.31
2019-04-21T00:23:13.051Z,78.50
2019-04-21T00:24:13.696Z,79.08
2019-04-21T00:25:13.939Z,79.17
2019-04-21T00:26:07.523Z,79.47
2019-04-21T00:27:15.638Z,79.56
2019-04-21T00:28:20.156Z,79.66
2019-04-21T00:29:16.601Z,80.14
2019-04-21T00:30:16.084Z,80.24
2019-04-21T00:31:15.632Z,80.14
2019-04-21T00:32:10.196Z,81.11
2019-04-21T00:33:06.759Z,81.20
2019-04-21T00:33:56.798Z,80.91
2019-04-21T00:35:04.694Z,81.20
2019-04-21T00:36:05.091Z,81.20
2019-04-21T00:37:09.389Z,81.30
2019-04-21T00:38:18.157Z,81.01
2019-04-21T00:39:28.714Z,80.49
2019-04-21T00:40:17.848Z,80.78
2019-04-21T00:41:23.511Z,80.43
2019-04-21T00:42:14.350Z,80.62
2019-04-21T00:43:15.168Z,80.58
2019-04-21T00:44:09.661Z,80.14
2019-04-21T00:45:13.047Z,80.82
2019-04-21T00:46:06.749Z,80.58
2019-04-21T00:47:14.098Z,81.07
2019-04-21T00:48:16.579Z,81.55
2019-04-21T00:49:10.898Z,81.35
2019-04-21T00:50:21.939Z,81.45
2019-04-21T00:51:42.161Z,81.35
2019-04-21T00:52:29.082Z,81.11
2019-04-21T00:53:22.213Z,81.20
2019-04-21T00:54:25.009Z,81.16
2019-04-21T00:56:34.048Z,81.49
2019-04-21T00:57:22.075Z,82.17
2019-04-21T00:58:22.471Z,82.13
2019-04-21T00:59:19.328Z,82.36
2019-04-21T01:00:20.266Z,82.13
2019-04-21T01:01:14.964Z,82.81
2019-04-21T01:02:19.257Z,83.00
2019-04-21T01:03:20.646Z,82.81
2019-04-21T01:04:15.378Z,83.39
2019-04-21T01:05:15.230Z,83.19
2019-04-21T01:06:16.370Z,83.29
2019-04-21T01:07:15.759Z,83.39
2019-04-21T01:08:13.889Z,83.19
2019-04-21T01:09:14.957Z,83.39
2019-04-21T01:10:09.396Z,83.29
2019-04-21T01:11:17.840Z,83.29
2019-04-21T01:12:15.584Z,83.67
2019-04-21T01:13:23.486Z,83.96
2019-04-21T01:14:27.923Z,83.58
2019-04-21T01:15:26.198Z,83.87
2019-04-21T01:16:21.040Z,83.77
2019-04-21T01:17:20.241Z,83.67
2019-04-21T01:18:16.873Z,83.77
2019-04-21T01:19:12.360Z,84.06
2019-04-21T01:20:07.916Z,83.58
2019-04-21T01:20:54.500Z,84.16
2019-04-21T01:21:54.463Z,84.06
2019-04-21T01:22:55.711Z,84.35
2019-04-21T01:23:55.681Z,84.54
2019-04-21T01:25:04.564Z,84.16
2019-04-21T01:26:06.758Z,84.54
2019-04-21T01:27:04.756Z,84.35
2019-04-21T01:28:15.095Z,84.35
2019-04-21T01:29:11.833Z,84.35
2019-04-21T01:30:16.541Z,83.67
2019-04-21T01:31:15.256Z,84.16
2019-04-21T01:32:18.773Z,84.35
2019-04-21T01:33:15.164Z,84.35
2019-04-21T01:34:15.041Z,84.54
2019-04-21T01:35:15.047Z,84.54
2019-04-21T01:36:11.066Z,84.64
2019-04-21T01:37:10.748Z,84.44
2019-04-21T01:38:14.538Z,84.25
2019-04-21T01:39:22.514Z,84.69
2019-04-21T01:40:25.992Z,84.79
2019-04-21T01:41:20.963Z,85.27
2019-04-21T01:42:19.074Z,85.46
2019-04-21T01:43:13.808Z,85.41
2019-04-21T01:44:19.737Z,85.17
2019-04-21T01:45:09.890Z,85.85
2019-04-21T01:46:11.283Z,85.80
2019-04-21T01:47:10.281Z,85.85
2019-04-21T01:48:12.588Z,85.85
2019-04-21T01:49:05.549Z,85.37
2019-04-21T01:50:02.564Z,85.66
2019-04-21T01:51:10.055Z,85.75
2019-04-21T01:52:24.053Z,85.56
2019-04-21T01:53:22.511Z,85.80
2019-04-21T01:54:18.491Z,85.75
2019-04-21T01:55:12.399Z,86.14
2019-04-21T01:56:11.841Z,86.43
2019-04-21T01:57:15.697Z,86.72
2019-04-21T01:58:05.996Z,86.91
2019-04-21T01:59:02.739Z,87.01
2019-04-21T02:00:02.614Z,87.01
2019-04-21T02:01:10.222Z,86.82
2019-04-21T02:02:14.200Z,87.20
2019-04-21T02:03:31.510Z,87.68
2019-04-21T02:04:20.787Z,87.88
2019-04-21T02:05:18.798Z,87.49
2019-04-21T02:06:19.491Z,87.30
2019-04-21T02:07:15.128Z,87.30
2019-04-21T02:08:11.003Z,87.59
2019-04-21T02:09:10.086Z,87.49
2019-04-21T02:10:17.810Z,87.30
2019-04-21T02:11:17.725Z,87.59
2019-04-21T02:12:13.490Z,87.40
2019-04-21T02:13:13.147Z,87.30
2019-04-21T02:14:20.772Z,87.88
2019-04-21T02:15:17.064Z,87.20
2019-04-21T02:16:14.114Z,87.59
2019-04-21T02:17:14.588Z,88.07
2019-04-21T02:18:13.452Z,87.78
2019-04-21T02:19:04.486Z,87.64
2019-04-21T02:20:06.721Z,88.07
2019-04-21T02:21:00.497Z,88.07
2019-04-21T02:22:04.595Z,87.88
2019-04-21T02:23:26.437Z,88.31
2019-04-21T02:24:23.848Z,88.60
2019-04-21T02:25:18.496Z,88.51
2019-04-21T02:26:16.055Z,88.51
2019-04-21T02:27:14.563Z,88.60
2019-04-21T02:28:22.444Z,88.75
2019-04-21T02:29:15.526Z,89.09
2019-04-21T02:30:18.350Z,88.89
2019-04-21T02:31:28.696Z,89.09
2019-04-21T02:32:28.704Z,88.93
2019-04-21T02:34:19.230Z,88.93
2019-04-21T02:35:30.711Z,88.99
2019-04-21T02:37:36.713Z,88.89
2019-04-21T02:39:22.179Z,88.60
2019-04-21T02:40:22.332Z,88.75
2019-04-21T02:41:21.468Z,88.55
2019-04-21T02:42:22.319Z,88.45
2019-04-21T02:45:22.941Z,88.99
2019-04-21T02:46:23.912Z,89.57
2019-04-21T02:47:31.318Z,89.67
2019-04-21T02:48:27.923Z,90.82
2019-04-21T02:49:35.029Z,90.24
2019-04-21T02:50:28.781Z,90.53
2019-04-21T02:51:27.652Z,91.40
2019-04-21T02:54:48.259Z,90.44
2019-04-21T02:55:13.445Z,90.15
2019-04-21T02:56:24.694Z,90.15
2019-04-21T02:58:25.073Z,89.28
2019-04-21T03:00:25.209Z,89.13
2019-04-21T03:02:31.470Z,89.03
2019-04-21T03:03:34.369Z,88.93
2019-04-21T03:04:25.687Z,88.89
2019-04-21T03:06:24.975Z,88.60
2019-04-21T03:08:28.086Z,88.79
2019-04-21T03:09:24.431Z,88.70
2019-04-21T03:10:24.685Z,88.79
2019-04-21T03:11:14.594Z,89.09
2019-04-21T03:12:20.154Z,89.13
2019-04-21T03:13:25.042Z,89.03
2019-04-21T03:14:28.280Z,88.99
2019-04-21T03:15:22.016Z,89.23
2019-04-21T03:17:23.948Z,88.93
2019-04-21T03:18:24.273Z,89.23
2019-04-21T03:20:33.618Z,89.13
2019-04-21T03:22:20.088Z,89.09
2019-04-21T03:24:17.361Z,89.90
2019-04-21T03:26:40.369Z,89.28
2019-04-21T03:28:22.600Z,90.05
2019-04-21T03:29:19.775Z,90.15
2019-04-21T03:30:29.198Z,91.40
2019-04-21T03:31:34.761Z,91.20
2019-04-21T03:33:06.082Z,90.92
2019-04-21T03:34:02.583Z,91.30
2019-04-21T03:36:39.855Z,91.20
2019-04-21T03:37:25.257Z,90.63
2019-04-21T03:38:20.757Z,90.58
2019-04-21T03:39:22.026Z,90.63
2019-04-21T03:40:15.138Z,90.87
2019-04-21T03:41:22.330Z,90.53
2019-04-21T03:42:26.895Z,90.34
2019-04-21T03:43:23.039Z,90.09
2019-04-21T03:45:25.087Z,89.51
2019-04-21T03:46:16.478Z,89.61
2019-04-21T03:47:23.420Z,89.81
2019-04-21T03:48:20.790Z,88.93
2019-04-21T03:50:22.404Z,89.71
2019-04-21T03:53:18.580Z,89.71
2019-04-21T03:54:18.096Z,89.51
2019-04-21T03:55:46.837Z,89.61
2019-04-21T03:56:44.411Z,89.51
2019-04-21T03:57:39.264Z,90.34
2019-04-21T03:58:26.231Z,90.48
2019-04-21T03:59:12.672Z,90.77
2019-04-21T04:00:36.474Z,90.72
2019-04-21T04:05:23.885Z,90.92
2019-04-21T04:06:19.585Z,91.50
2019-04-21T04:07:24.224Z,91.11
2019-04-21T04:10:24.502Z,91.02
2019-04-21T04:12:13.278Z,91.11
2019-04-21T04:12:13.376Z,90.82
2019-04-21T04:13:14.458Z,91.11
2019-04-21T04:15:24.361Z,91.11
2019-04-21T04:16:18.833Z,91.02
2019-04-21T04:18:31.299Z,91.40
2019-04-21T04:19:16.029Z,91.20
2019-04-21T04:20:22.160Z,91.20
2019-04-21T04:21:20.923Z,91.44
2019-04-21T04:22:20.752Z,91.25
2019-04-21T04:23:20.198Z,91.11
2019-04-21T04:24:22.221Z,91.40
2019-04-21T04:25:27.853Z,91.02
2019-04-21T04:26:29.821Z,91.78
2019-04-21T04:27:26.187Z,91.30
2019-04-21T04:28:38.406Z,91.02
2019-04-21T04:30:23.562Z,91.69
2019-04-21T04:31:25.456Z,91.20
2019-04-21T04:32:14.544Z,91.78
2019-04-21T04:33:22.826Z,91.02
2019-04-21T04:36:23.943Z,92.46
2019-04-21T04:38:24.246Z,92.75
2019-04-21T04:39:35.821Z,92.75
2019-04-21T04:41:29.909Z,92.75
2019-04-21T04:42:21.788Z,92.56
2019-04-21T04:43:21.235Z,92.75
2019-04-21T04:44:25.837Z,92.94
2019-04-21T04:45:25.614Z,92.75
2019-04-21T04:46:34.308Z,92.75
2019-04-21T04:47:20.487Z,93.04
2019-04-21T04:48:24.187Z,92.75
2019-04-21T04:49:28.745Z,92.17
2019-04-21T04:50:15.836Z,92.46
2019-04-21T04:51:18.878Z,92.27
2019-04-21T04:53:25.854Z,92.46
2019-04-21T04:54:22.201Z,92.36
2019-04-21T04:55:19.198Z,92.27
2019-04-21T04:57:34.267Z,91.69
2019-04-21T04:58:44.608Z,91.88
2019-04-21T05:00:28.348Z,91.98
2019-04-21T05:01:51.214Z,91.78
2019-04-21T05:03:18.836Z,91.60
2019-04-21T05:04:20.445Z,91.02
2019-04-21T05:05:19.335Z,91.02
2019-04-21T05:06:24.204Z,91.78
2019-04-21T05:07:13.816Z,91.60
2019-04-21T05:08:19.751Z,92.13
2019-04-21T05:09:13.114Z,92.36
2019-04-21T05:11:30.719Z,92.71
2019-04-21T05:12:11.818Z,93.09
2019-04-21T05:13:23.091Z,92.90
2019-04-21T05:15:12.669Z,92.03
2019-04-21T05:16:26.402Z,92.27
2019-04-21T05:18:18.960Z,91.93
2019-04-21T05:19:14.865Z,91.98
2019-04-21T05:20:11.607Z,91.69
2019-04-21T05:21:24.457Z,91.50
2019-04-21T05:22:20.251Z,92.27
2019-04-21T05:23:06.733Z,91.50
2019-04-21T05:23:59.858Z,91.60
2019-04-21T05:24:58.264Z,91.60
2019-04-21T05:25:59.652Z,92.27
2019-04-21T05:27:00.306Z,92.22
2019-04-21T05:27:56.703Z,92.94
2019-04-21T05:28:57.988Z,92.90
2019-04-21T05:30:15.316Z,92.71
2019-04-21T05:31:06.330Z,92.61
2019-04-21T05:32:08.107Z,92.56
2019-04-21T05:33:03.939Z,92.13
2019-04-21T05:34:03.129Z,92.27
2019-04-21T05:35:01.926Z,92.13
2019-04-21T05:36:05.764Z,92.27
2019-04-21T05:37:02.642Z,91.93
2019-04-21T05:38:03.028Z,92.36
2019-04-21T05:39:02.556Z,92.17
2019-04-21T05:39:56.994Z,91.93
2019-04-21T05:40:57.602Z,92.22
2019-04-21T05:41:52.903Z,92.90
2019-04-21T05:43:04.467Z,92.61
2019-04-21T05:44:03.765Z,93.38
2019-04-21T05:45:12.739Z,93.38
2019-04-21T05:46:10.425Z,94.15
2019-04-21T05:47:15.936Z,94.34
2019-04-21T05:48:12.834Z,94.34
2019-04-21T05:49:02.717Z,94.24
2019-04-21T05:50:00.982Z,94.54
2019-04-21T05:50:59.170Z,94.24
2019-04-21T05:51:58.380Z,93.38
2019-04-21T05:53:00.206Z,93.57
2019-04-21T05:54:10.931Z,93.66
2019-04-21T05:55:09.563Z,93.28
2019-04-21T05:56:08.635Z,92.61
2019-04-21T05:57:02.408Z,92.90
2019-04-21T05:58:02.725Z,92.61
2019-04-21T05:59:02.067Z,92.03
2019-04-21T06:00:06.659Z,92.61
2019-04-21T06:01:30.144Z,92.13
2019-04-21T06:02:15.081Z,91.93
2019-04-21T06:03:05.390Z,91.74
2019-04-21T06:04:07.232Z,91.74
2019-04-21T06:05:14.186Z,91.93
2019-04-21T06:07:15.352Z,92.71
2019-04-21T06:08:09.911Z,93.76
2019-04-21T06:09:00.827Z,93.96
2019-04-21T06:11:10.486Z,95.40
2019-04-21T06:12:07.629Z,96.12
2019-04-21T06:13:06.720Z,96.22
2019-04-21T06:14:12.421Z,96.80
2019-04-21T06:15:08.795Z,96.80
2019-04-21T06:16:03.582Z,96.89
2019-04-21T06:17:01.513Z,97.57
2019-04-21T06:18:04.982Z,96.99
2019-04-21T06:19:23.207Z,97.19
2019-04-21T06:21:06.918Z,96.89
2019-04-21T06:22:03.597Z,96.89
2019-04-21T06:23:02.969Z,96.27
2019-04-21T06:24:03.796Z,96.27
2019-04-21T06:26:25.778Z,95.31
2019-04-21T06:27:22.863Z,95.07
2019-04-21T06:28:04.618Z,95.02
2019-04-21T06:29:04.292Z,94.29
2019-04-21T06:30:04.775Z,94.68
2019-04-21T06:31:30.282Z,94.54
2019-04-21T06:32:29.474Z,93.62
2019-04-21T06:33:09.941Z,93.38
2019-04-21T06:34:04.663Z,93.48
2019-04-21T06:37:19.224Z,93.38
2019-04-21T06:38:08.421Z,93.38
2019-04-21T06:39:17.871Z,93.19
2019-04-21T06:40:15.288Z,92.71
2019-04-21T06:41:04.806Z,92.41
2019-04-21T06:42:01.289Z,92.32
2019-04-21T06:43:15.697Z,93.09
2019-04-21T06:44:07.573Z,92.90
2019-04-21T06:45:07.261Z,93.09
2019-04-21T06:45:59.016Z,93.38
2019-04-21T06:47:05.995Z,93.28
2019-04-21T06:48:04.253Z,93.48
2019-04-21T06:50:00.481Z,92.71
2019-04-21T06:51:08.990Z,92.71
2019-04-21T06:52:11.417Z,92.71
2019-04-21T06:53:06.340Z,92.61
2019-04-21T06:54:04.407Z,92.71
2019-04-21T06:56:04.606Z,92.80
2019-04-21T06:56:58.448Z,92.51
2019-04-21T06:58:00.640Z,92.99
2019-04-21T06:59:01.449Z,92.71
2019-04-21T06:59:55.509Z,92.32
2019-04-21T07:01:02.409Z,92.32
2019-04-21T07:02:31.851Z,92.22
2019-04-21T07:03:11.520Z,92.41
2019-04-21T07:05:03.675Z,92.13
2019-04-21T07:06:03.543Z,92.61
2019-04-21T07:06:59.252Z,92.22
2019-04-21T07:08:14.845Z,92.03
2019-04-21T07:09:11.626Z,92.51
2019-04-21T07:10:04.226Z,92.80
2019-04-21T07:11:02.952Z,91.83
2019-04-21T07:11:59.960Z,93.09
2019-04-21T07:12:59.024Z,92.80
2019-04-21T07:14:22.445Z,93.28
2019-04-21T07:15:03.369Z,93.66
2019-04-21T07:16:05.008Z,93.96
2019-04-21T07:17:07.979Z,94.49
2019-04-21T07:17:57.799Z,94.68
2019-04-21T07:19:09.970Z,94.39
2019-04-21T07:20:17.143Z,93.91
2019-04-21T07:21:02.771Z,94.68
2019-04-21T07:21:56.736Z,93.81
2019-04-21T07:23:03.226Z,93.81
2019-04-21T07:24:10.704Z,93.62
2019-04-21T07:25:02.930Z,93.62
2019-04-21T07:25:58.232Z,93.91
2019-04-21T07:27:02.675Z,94.01
2019-04-21T07:27:59.942Z,94.10
2019-04-21T07:29:04.460Z,94.10
2019-04-21T07:30:04.318Z,94.20
2019-04-21T07:31:03.727Z,94.39
2019-04-21T07:33:07.524Z,94.59
2019-04-21T07:34:10.847Z,94.87
2019-04-21T07:35:06.521Z,94.29
2019-04-21T07:35:55.659Z,94.97
2019-04-21T07:37:00.996Z,94.68
2019-04-21T07:38:00.902Z,95.45
2019-04-21T07:38:56.310Z,95.45
2019-04-21T07:39:56.794Z,94.59
2019-04-21T07:40:53.903Z,94.29
2019-04-21T07:41:53.956Z,94.39
2019-04-21T07:42:51.179Z,94.29
2019-04-21T07:43:52.096Z,94.49
2019-04-21T07:44:55.346Z,94.20
2019-04-21T07:45:55.680Z,94.87
2019-04-21T07:46:50.448Z,95.16
2019-04-21T07:47:59.167Z,95.16
2019-04-21T07:48:55.418Z,95.36
2019-04-21T07:50:00.489Z,95.84
2019-04-21T07:50:57.453Z,95.74
2019-04-21T07:52:03.354Z,95.94
2019-04-21T07:53:01.728Z,94.97
2019-04-21T07:54:02.126Z,95.21
2019-04-21T07:55:05.516Z,95.16
2019-04-21T07:55:38.033Z,95.45
2019-04-21T07:56:44.273Z,95.07
2019-04-21T07:57:52.645Z,95.55
2019-04-21T07:58:59.765Z,95.64
2019-04-21T08:00:08.383Z,95.16
2019-04-21T08:01:11.717Z,94.92
2019-04-21T08:01:55.197Z,95.45
2019-04-21T08:02:58.362Z,95.55
2019-04-21T08:03:59.438Z,96.32
2019-04-21T08:05:02.969Z,95.94
2019-04-21T08:05:58.514Z,96.08
2019-04-21T08:07:01.262Z,95.89
2019-04-21T08:08:01.548Z,95.89
2019-04-21T08:08:57.866Z,96.46
2019-04-21T08:09:51.521Z,96.85
2019-04-21T08:10:52.279Z,97.33
2019-04-21T08:11:51.764Z,97.42
2019-04-21T08:12:54.242Z,97.42
2019-04-21T08:13:57.879Z,97.62
2019-04-21T08:15:03.196Z,97.62
2019-04-21T08:16:10.886Z,97.52
2019-04-21T08:16:57.731Z,97.14
2019-04-21T08:17:53.389Z,96.37
2019-04-21T08:18:59.765Z,96.17
2019-04-21T08:20:54.696Z,96.27
2019-04-21T08:21:57.607Z,95.55
2019-04-21T08:23:13.584Z,95.36
2019-04-21T08:23:55.234Z,95.26
2019-04-21T08:24:56.157Z,94.97
2019-04-21T08:26:57.585Z,95.07
2019-04-21T08:28:19.180Z,95.36
2019-04-21T08:29:06.477Z,95.45
2019-04-21T08:29:58.228Z,96.22
2019-04-21T08:30:55.313Z,95.94
2019-04-21T08:32:02.819Z,96.12
2019-04-21T08:33:02.535Z,95.94
2019-04-21T08:34:03.217Z,96.03
2019-04-21T08:35:08.536Z,95.36
2019-04-21T08:36:51.289Z,95.07
2019-04-21T08:37:54.782Z,94.68
2019-04-21T08:38:57.018Z,94.68
2019-04-21T08:40:05.079Z,94.20
2019-04-21T08:40:55.859Z,94.39
2019-04-21T08:42:55.177Z,94.49
2019-04-21T08:43:51.584Z,94.63
2019-04-21T08:44:56.877Z,93.91
2019-04-21T08:45:52.727Z,93.57
2019-04-21T08:47:00.130Z,92.99
2019-04-21T08:47:52.550Z,93.38
2019-04-21T08:48:55.383Z,93.52
2019-04-21T08:49:57.020Z,93.81
2019-04-21T08:51:05.974Z,94.20
2019-04-21T08:52:00.701Z,94.59
2019-04-21T08:53:07.865Z,94.49
2019-04-21T08:53:55.937Z,94.49
2019-04-21T08:54:55.891Z,94.68
2019-04-21T08:55:58.009Z,94.68
2019-04-21T08:56:53.876Z,94.49
2019-04-21T08:58:08.373Z,94.39
2019-04-21T08:59:00.710Z,94.29
2019-04-21T08:59:58.652Z,94.49
2019-04-21T09:00:55.211Z,93.72
2019-04-21T09:01:55.774Z,93.81
2019-04-21T09:02:58.880Z,93.72
2019-04-21T09:03:56.837Z,93.86
2019-04-21T09:04:52.493Z,93.81
2019-04-21T09:05:52.576Z,93.96
2019-04-21T09:07:50.949Z,93.96
2019-04-21T09:08:52.231Z,93.66
2019-04-21T09:09:52.942Z,93.48
2019-04-21T09:10:54.231Z,93.52
2019-04-21T09:11:55.292Z,93.76
2019-04-21T09:12:52.017Z,93.19
2019-04-21T09:13:47.726Z,93.09
2019-04-21T09:14:54.249Z,92.66
2019-04-21T09:15:47.470Z,93.14
2019-04-21T09:16:46.262Z,93.33
2019-04-21T09:17:44.635Z,93.52
2019-04-21T09:18:47.075Z,93.52
2019-04-21T09:20:55.274Z,93.43
2019-04-21T09:22:47.751Z,93.81
2019-04-21T09:23:53.963Z,93.43
2019-04-21T09:24:52.424Z,93.62
2019-04-21T09:25:52.654Z,93.52
2019-04-21T09:26:51.481Z,93.81
2019-04-21T09:27:47.005Z,93.43
2019-04-21T09:28:46.401Z,93.81
2019-04-21T09:29:40.658Z,93.33
2019-04-21T09:30:39.594Z,93.91
2019-04-21T09:31:38.914Z,93.67
2019-04-21T09:32:34.834Z,94.34
2019-04-21T09:33:37.748Z,94.44
2019-04-21T09:34:36.999Z,94.64
2019-04-21T09:35:55.559Z,94.92
2019-04-21T09:36:51.507Z,94.64
2019-04-21T09:37:53.388Z,94.73
2019-04-21T09:38:56.088Z,94.73
2019-04-21T09:39:50.825Z,94.49
2019-04-21T09:40:51.003Z,94.59
2019-04-21T09:41:51.199Z,94.44
2019-04-21T09:42:54.217Z,94.49
2019-04-21T09:43:50.625Z,94.10
2019-04-21T09:44:50.496Z,93.81
2019-04-21T09:45:47.624Z,94.68
2019-04-21T09:46:51.953Z,94.49
2019-04-21T09:47:57.434Z,94.78
2019-04-21T09:48:56.788Z,93.72
2019-04-21T09:49:47.445Z,93.81
2019-04-21T09:50:47.930Z,93.81
2019-04-21T09:51:47.963Z,94.01
2019-04-21T09:52:52.852Z,93.81
2019-04-21T09:53:55.788Z,93.62
2019-04-21T09:54:56.486Z,94.68
2019-04-21T09:55:54.255Z,94.20
2019-04-21T09:56:54.017Z,94.59
2019-04-21T09:57:52.146Z,94.49
2019-04-21T09:58:51.289Z,95.16
2019-04-21T09:59:55.849Z,95.36
2019-04-21T10:01:00.117Z,95.26
2019-04-21T10:02:00.189Z,95.26
2019-04-21T10:02:56.779Z,95.36
2019-04-21T10:03:49.347Z,95.36
2019-04-21T10:04:46.344Z,95.31
2019-04-21T10:05:47.486Z,92.75
2019-04-21T10:06:46.078Z,90.48
2019-04-21T10:07:46.502Z,87.48
2019-04-21T10:08:51.533Z,86.61
2019-04-21T10:09:45.942Z,86.13
2019-04-21T10:10:46.835Z,86.28
2019-04-21T10:11:45.980Z,86.62
2019-04-21T10:12:45.785Z,87.59
2019-04-21T10:13:46.331Z,88.36
2019-04-21T10:14:45.702Z,88.45
2019-04-21T10:15:46.274Z,88.65
2019-04-21T10:16:45.612Z,88.65
2019-04-21T10:17:45.598Z,87.97
2019-04-21T10:18:46.099Z,88.36
2019-04-21T10:19:46.367Z,88.17
2019-04-21T10:20:45.417Z,87.40
2019-04-21T10:21:46.395Z,87.68
2019-04-21T10:22:45.344Z,88.70
2019-04-21T10:23:45.707Z,89.61
2019-04-21T10:24:46.617Z,89.42
2019-04-21T10:25:46.323Z,89.56
2019-04-21T10:26:45.223Z,86.27
2019-04-21T10:27:45.385Z,81.79
2019-04-21T10:28:45.050Z,76.78
2019-04-21T10:29:46.761Z,71.58
2019-04-21T10:30:44.991Z,65.98
2019-04-21T10:31:45.077Z,61.50
2019-04-21T10:32:46.000Z,58.17
2019-04-21T10:33:46.167Z,55.03
2019-04-21T10:34:45.286Z,52.37
2019-04-21T10:35:44.756Z,49.87
2019-04-21T10:36:44.928Z,48.06
2019-04-21T10:37:53.627Z,46.44
2019-04-21T10:38:48.755Z,44.47
2019-04-21T10:39:45.380Z,44.01
2019-04-21T10:40:45.570Z,43.43
2019-04-21T10:41:45.693Z,42.96
2019-04-21T10:42:45.888Z,41.43
2019-04-21T10:43:45.200Z,40.98
2019-04-21T10:44:45.208Z,39.42
2019-04-21T10:45:44.337Z,38.54
2019-04-21T10:46:47.341Z,37.98
2019-04-21T10:47:45.040Z,37.30
2019-04-21T10:48:44.204Z,36.16
2019-04-21T10:49:44.788Z,34.91
2019-04-21T10:50:45.214Z,34.61
2019-04-21T10:51:44.080Z,34.20
2019-04-21T10:52:44.876Z,34.78
2019-04-21T10:53:45.843Z,34.76
2019-04-21T10:55:07.879Z,35.12
2019-04-21T10:55:56.704Z,35.22
2019-04-21T10:56:45.695Z,35.52
2019-04-21T10:57:44.381Z,35.69
2019-04-21T10:58:44.561Z,36.19
2019-04-21T10:59:47.944Z,35.83
2019-04-21T11:00:44.030Z,34.55
2019-04-21T11:01:45.171Z,34.63
2019-04-21T11:02:43.658Z,34.72
2019-04-21T11:03:44.695Z,34.74
2019-04-21T11:04:44.045Z,34.92
2019-04-21T11:05:44.955Z,34.76
2019-04-21T11:06:44.292Z,33.69
2019-04-21T11:07:55.325Z,33.49
2019-04-21T11:08:47.593Z,32.90
2019-04-21T11:09:44.314Z,34.53
2019-04-21T11:10:43.748Z,36.11
2019-04-21T11:11:46.478Z,39.64
2019-04-21T11:12:44.803Z,41.84
2019-04-21T11:13:44.282Z,44.81
2019-04-21T11:14:43.181Z,46.72
2019-04-21T11:15:43.230Z,48.73
2019-04-21T11:16:45.846Z,50.36
2019-04-21T11:17:43.902Z,50.60
2019-04-21T11:18:44.108Z,52.04
2019-04-21T11:19:43.149Z,53.70
2019-04-21T11:20:42.968Z,53.58
2019-04-21T11:21:43.043Z,54.01
2019-04-21T11:22:43.890Z,55.18
2019-04-21T11:23:43.909Z,56.61
2019-04-21T11:24:43.070Z,57.39
2019-04-21T11:25:43.969Z,58.72
2019-04-21T11:26:42.718Z,57.65
2019-04-21T11:27:42.949Z,57.36
2019-04-21T11:28:43.013Z,58.23
2019-04-21T11:29:43.275Z,58.53
2019-04-21T11:30:42.568Z,58.43
2019-04-21T11:31:43.126Z,57.62
2019-04-21T11:32:44.950Z,58.59
2019-04-21T11:33:43.028Z,59.28
2019-04-21T11:34:43.150Z,59.83
2019-04-21T11:35:43.478Z,59.54
2019-04-21T11:36:42.306Z,60.41
2019-04-21T11:37:42.271Z,61.58
2019-04-21T11:38:58.135Z,60.90
2019-04-21T11:39:50.018Z,60.51
2019-04-21T11:40:43.352Z,60.80
2019-04-21T11:41:43.519Z,61.51
2019-04-21T11:42:42.066Z,61.71
2019-04-21T11:43:43.232Z,60.83
2019-04-21T11:44:41.953Z,59.92
2019-04-21T11:45:42.238Z,60.12
2019-04-21T11:46:42.579Z,60.38
2019-04-21T11:47:42.664Z,59.92
2019-04-21T11:48:42.168Z,60.22
2019-04-21T11:49:43.080Z,59.74
2019-04-21T11:50:41.728Z,60.41
2019-04-21T11:51:42.770Z,59.92
2019-04-21T11:52:43.085Z,60.09
2019-04-21T11:53:41.579Z,60.48
2019-04-21T11:54:42.670Z,60.68
2019-04-21T11:55:44.825Z,60.48
2019-04-21T11:56:41.460Z,60.87
2019-04-21T11:57:44.943Z,62.04
2019-04-21T11:58:41.589Z,63.46
2019-04-21T11:59:41.714Z,63.95
2019-04-21T12:00:42.099Z,62.29
2019-04-21T12:01:41.493Z,62.68
2019-04-21T12:02:41.557Z,64.43
2019-04-21T12:03:41.981Z,63.85
2019-04-21T12:04:41.337Z,62.71
2019-04-21T12:05:41.461Z,62.32
2019-04-21T12:06:44.496Z,61.65
2019-04-21T12:07:40.992Z,60.71
2019-04-21T12:08:45.705Z,60.41
2019-04-21T12:09:41.664Z,60.22
2019-04-21T12:10:41.844Z,60.05
2019-04-21T12:11:41.169Z,60.25
2019-04-21T12:12:41.343Z,60.15
2019-04-21T12:13:40.706Z,59.47
2019-04-21T12:14:41.837Z,60.35
2019-04-21T12:15:40.935Z,60.05
2019-04-21T12:16:41.245Z,60.05
2019-04-21T12:17:41.782Z,59.38
2019-04-21T12:18:40.768Z,59.38
2019-04-21T12:19:40.880Z,59.28
2019-04-21T12:20:40.415Z,59.67
2019-04-21T12:21:53.301Z,59.57
2019-04-21T12:22:41.190Z,57.72
2019-04-21T12:23:40.581Z,57.62
2019-04-21T12:24:40.255Z,58.59
2019-04-21T12:25:40.958Z,58.40
2019-04-21T12:26:40.243Z,58.59
2019-04-21T12:27:41.590Z,58.79
2019-04-21T12:28:40.095Z,58.72
2019-04-21T12:29:40.017Z,57.75
2019-04-21T12:30:40.006Z,57.85
2019-04-21T12:31:41.275Z,57.56
2019-04-21T12:32:40.275Z,57.56
2019-04-21T12:33:40.242Z,57.26
2019-04-21T12:34:39.822Z,57.46
2019-04-21T12:35:39.805Z,57.75
2019-04-21T12:36:40.022Z,57.65
2019-04-21T12:37:40.678Z,59.11
2019-04-21T12:38:46.910Z,58.72
2019-04-21T12:39:40.860Z,58.72
2019-04-21T12:40:39.550Z,58.23
2019-04-21T12:41:40.522Z,57.56
2019-04-21T12:42:41.712Z,57.85
2019-04-21T12:43:39.416Z,58.53
2019-04-21T12:44:39.406Z,58.04
2019-04-21T12:45:39.999Z,56.20
2019-04-21T12:46:40.167Z,56.77
2019-04-21T12:47:39.792Z,55.64
2019-04-21T12:48:40.017Z,55.80
2019-04-21T12:49:39.831Z,57.36
2019-04-21T12:50:39.578Z,55.80
2019-04-21T12:51:39.788Z,55.41
2019-04-21T12:52:39.720Z,55.80
2019-04-21T12:53:39.409Z,55.32
2019-04-21T12:54:39.667Z,55.51
2019-04-21T12:55:44.024Z,55.41
2019-04-21T12:56:38.860Z,56.00
2019-04-21T12:57:39.238Z,55.61
2019-04-21T12:58:39.546Z,52.98
2019-04-21T12:59:39.591Z,52.86
2019-04-21T13:00:38.907Z,55.39
2019-04-21T13:01:39.004Z,54.71
2019-04-21T13:02:39.701Z,54.80
2019-04-21T13:03:39.700Z,55.22
2019-04-21T13:04:39.930Z,53.67
2019-04-21T13:05:39.872Z,54.74
2019-04-21T13:06:39.399Z,53.77
2019-04-21T13:07:39.491Z,53.47
2019-04-21T13:08:45.570Z,52.79
2019-04-21T13:09:38.316Z,53.77
2019-04-21T13:10:38.293Z,53.28
2019-04-21T13:11:39.259Z,53.20
2019-04-21T13:12:38.186Z,53.50
2019-04-21T13:13:38.131Z,53.20
2019-04-21T13:14:38.109Z,53.20
2019-04-21T13:15:38.081Z,53.01
2019-04-21T13:16:39.184Z,53.50
2019-04-21T13:17:39.330Z,53.01
2019-04-21T13:18:37.938Z,53.59
2019-04-21T13:19:38.987Z,54.28
2019-04-21T13:20:38.216Z,53.99
2019-04-21T13:21:38.156Z,53.30
2019-04-21T13:22:37.780Z,53.38
2019-04-21T13:23:39.066Z,53.08
2019-04-21T13:24:37.988Z,53.28
2019-04-21T13:25:38.053Z,53.20
2019-04-21T13:26:45.629Z,52.79
2019-04-21T13:27:38.765Z,52.82
2019-04-21T13:28:37.759Z,51.55
2019-04-21T13:29:38.564Z,51.75
2019-04-21T13:30:38.096Z,51.39
2019-04-21T13:31:38.432Z,51.67
2019-04-21T13:32:37.405Z,51.67
2019-04-21T13:33:37.759Z,51.58
2019-04-21T13:34:37.934Z,51.90
2019-04-21T13:35:37.259Z,51.80
2019-04-21T13:36:37.159Z,49.66
2019-04-21T13:37:37.405Z,49.66
2019-04-21T13:38:45.321Z,51.21
2019-04-21T13:40:06.569Z,51.61
2019-04-21T13:40:54.013Z,51.41
2019-04-21T13:41:53.306Z,50.56
2019-04-21T13:42:43.885Z,51.73
2019-04-21T13:43:37.152Z,49.85
2019-04-21T13:44:37.116Z,50.53
2019-04-21T13:45:37.388Z,50.63
2019-04-21T13:46:36.722Z,51.02
2019-04-21T13:47:36.701Z,49.29
2019-04-21T13:48:36.928Z,48.61
2019-04-21T13:49:37.139Z,49.19
2019-04-21T13:50:37.335Z,50.07
2019-04-21T13:51:36.522Z,49.00
2019-04-21T13:52:36.602Z,48.51
2019-04-21T13:53:37.840Z,49.07
2019-04-21T13:54:37.736Z,50.34
2019-04-21T13:55:37.086Z,49.00